Time;durP1;ratioP1;P1;durP2;ratioP2;P2;SDS_P1;SDS_P2;PMS_P1;PMS_P2;Temp;Humidity;BMP_temperature;BMP_pressure;BME280_temperature;BME280_humidity;BME280_pressure;Samples;Min_cycle;Max_cycle;Signal;HPM_P1;HPM_P2
2023/07/06 00:02:05;;;;;;;8.60;7.22;;;;;;;14.00;95.60;101416.22;5066457;28;20051;-75
2023/07/06 00:04:32;;;;;;;10.05;6.95;;;;;;;13.95;95.71;101409.31;5064898;28;20500;-75
2023/07/06 00:06:59;;;;;;;11.43;7.03;;;;;;;13.93;95.86;101416.44;5065257;28;20052;-74
2023/07/06 00:09:26;;;;;;;8.57;6.95;;;;;;;13.92;96.05;101413.84;5064755;28;20101;-74
2023/07/06 00:11:55;;;;;;;12.30;7.05;;;;;;;13.91;96.23;101417.44;5065497;28;20037;-75
2023/07/06 00:14:24;;;;;;;10.43;7.25;;;;;;;13.91;96.34;101417.44;5064236;28;20091;-74
2023/07/06 00:17:08;;;;;;;8.30;7.40;;;;;;;13.93;96.66;101424.41;5063407;28;20056;-74
2023/07/06 00:19:35;;;;;;;11.25;7.15;;;;;;;13.91;96.47;101420.94;5065371;28;20048;-73
2023/07/06 00:22:03;;;;;;;10.85;6.75;;;;;;;13.94;96.62;101422.59;5065383;28;20049;-72
2023/07/06 00:24:30;;;;;;;10.73;6.82;;;;;;;13.94;96.60;101414.66;5062619;28;20045;-73
2023/07/06 00:26:57;;;;;;;9.85;6.85;;;;;;;13.95;96.50;101419.03;5065050;28;20393;-73
2023/07/06 00:29:26;;;;;;;10.10;6.40;;;;;;;13.97;96.52;101417.19;5062212;28;20045;-75
2023/07/06 00:32:04;;;;;;;12.38;6.85;;;;;;;13.95;96.23;101421.69;5066003;28;20071;-72
2023/07/06 00:34:34;;;;;;;12.48;7.65;;;;;;;13.94;96.17;101418.19;5066191;28;20045;-73
2023/07/06 00:37:03;;;;;;;8.95;6.93;;;;;;;13.92;96.08;101420.00;5066094;28;20041;-73
2023/07/06 00:39:30;;;;;;;11.82;7.18;;;;;;;13.91;96.04;101420.06;5065900;28;20259;-73
2023/07/06 00:41:58;;;;;;;11.20;6.93;;;;;;;13.91;95.84;101420.94;5065663;28;20047;-72
2023/07/06 00:44:48;;;;;;;10.82;6.75;;;;;;;13.90;95.69;101421.84;5052285;28;20045;-73
2023/07/06 00:47:33;;;;;;;11.18;5.97;;;;;;;13.88;95.77;101431.66;5065973;28;20041;-74
2023/07/06 00:50:09;;;;;;;12.68;7.13;;;;;;;13.86;95.66;101422.88;5061976;28;20390;-72
2023/07/06 00:52:43;;;;;;;8.93;6.50;;;;;;;13.84;95.39;101414.13;5066290;28;20052;-73
2023/07/06 00:55:12;;;;;;;11.65;6.38;;;;;;;13.82;95.20;101424.78;5064291;28;20044;-73
2023/07/06 00:57:44;;;;;;;8.18;6.35;;;;;;;13.80;95.08;101420.44;5063724;28;20040;-74
2023/07/06 01:00:20;;;;;;;10.25;6.60;;;;;;;13.78;95.21;101415.19;5064966;28;20080;-72
2023/07/06 01:02:57;;;;;;;8.43;6.07;;;;;;;13.74;95.08;101418.00;5065524;28;20053;-73
2023/07/06 01:05:28;;;;;;;10.20;6.13;;;;;;;13.68;94.92;101419.09;5058213;28;20132;-73
2023/07/06 01:08:05;;;;;;;11.07;5.90;;;;;;;13.64;94.98;101418.31;5063025;28;20539;-73
2023/07/06 01:10:34;;;;;;;11.90;6.20;;;;;;;13.59;94.67;101422.03;5062607;28;20470;-73
2023/07/06 01:13:01;;;;;;;9.85;5.90;;;;;;;13.57;94.72;101421.22;5058598;28;20049;-74
2023/07/06 01:15:34;;;;;;;7.28;5.60;;;;;;;13.53;94.89;101414.31;5064000;28;20049;-72
2023/07/06 01:18:22;;;;;;;9.87;5.43;;;;;;;13.52;94.71;101418.72;5062152;28;20059;-73
2023/07/06 01:21:09;;;;;;;8.07;5.43;;;;;;;13.51;94.63;101425.81;5059994;28;20438;-72
2023/07/06 01:24:40;;;;;;;9.05;5.18;;;;;;;13.48;94.58;101420.63;5059986;28;20056;-72
2023/07/06 01:27:41;;;;;;;8.35;5.38;;;;;;;13.47;94.69;101413.59;5063747;28;20056;-72
2023/07/06 01:30:27;;;;;;;10.60;5.15;;;;;;;13.45;94.88;101418.06;5050992;28;20533;-73
2023/07/06 01:33:09;;;;;;;6.50;5.05;;;;;;;13.44;94.75;101416.34;5065717;28;20191;-73
2023/07/06 01:35:50;;;;;;;8.88;5.30;;;;;;;13.41;94.84;101418.22;5064198;28;20071;-73
2023/07/06 01:38:17;;;;;;;6.07;5.20;;;;;;;13.41;94.56;101415.56;5056297;28;20052;-73
2023/07/06 01:40:44;;;;;;;7.95;4.82;;;;;;;13.39;94.78;101418.28;5075756;28;20072;-73
2023/07/06 01:43:13;;;;;;;7.90;5.25;;;;;;;13.39;94.58;101415.63;5059856;28;20051;-73
2023/07/06 01:45:40;;;;;;;8.57;5.07;;;;;;;13.38;94.29;101421.81;5065878;28;20114;-73
2023/07/06 01:48:10;;;;;;;9.82;5.05;;;;;;;13.36;94.06;101435.13;5060321;28;20049;-73
2023/07/06 01:51:10;;;;;;;12.65;5.20;;;;;;;13.30;93.84;101432.66;5055661;28;20056;-73
2023/07/06 01:53:54;;;;;;;10.07;5.28;;;;;;;13.23;94.31;101417.03;5060579;28;20052;-75
2023/07/06 01:56:31;;;;;;;6.70;5.20;;;;;;;13.17;93.77;101426.03;5062865;28;20465;-75
2023/07/06 01:59:03;;;;;;;8.68;5.45;;;;;;;13.12;93.66;101415.59;5063101;28;20408;-76
2023/07/06 02:01:46;;;;;;;10.63;5.45;;;;;;;13.08;93.74;101419.22;5062903;28;20499;-76
2023/07/06 02:04:15;;;;;;;9.27;5.55;;;;;;;13.01;93.57;101421.22;5065399;28;20253;-75
2023/07/06 02:06:43;;;;;;;9.25;4.95;;;;;;;12.94;93.79;101419.69;5064637;28;20037;-76
2023/07/06 02:09:18;;;;;;;9.18;4.78;;;;;;;12.91;93.76;101427.69;5062932;28;20048;-76
2023/07/06 02:11:46;;;;;;;8.63;4.97;;;;;;;12.88;93.71;101419.84;5056432;28;20045;-76
2023/07/06 02:14:13;;;;;;;7.68;5.00;;;;;;;12.86;93.85;101432.28;5064906;28;20045;-76
2023/07/06 02:16:40;;;;;;;8.10;5.00;;;;;;;12.80;94.26;101413.94;5062300;28;20049;-76
2023/07/06 02:19:08;;;;;;;9.48;4.80;;;;;;;12.78;93.92;101413.97;5061119;28;20041;-75
2023/07/06 02:21:36;;;;;;;9.40;5.00;;;;;;;12.73;94.16;101410.59;5060131;28;20409;-77
2023/07/06 02:24:04;;;;;;;8.65;4.38;;;;;;;12.70;94.08;101414.22;5064969;28;20397;-76
2023/07/06 02:26:32;;;;;;;12.95;5.00;;;;;;;12.67;94.06;101410.78;5068387;28;20091;-75
2023/07/06 02:29:01;;;;;;;8.57;5.13;;;;;;;12.65;94.10;101415.25;5068035;28;20551;-75
2023/07/06 02:31:28;;;;;;;6.78;4.50;;;;;;;12.65;94.58;101410.84;5063380;28;20077;-75
2023/07/06 02:33:55;;;;;;;8.07;4.63;;;;;;;12.67;94.63;101419.56;5068643;28;20037;-74
2023/07/06 02:36:22;;;;;;;7.80;4.78;;;;;;;12.68;94.63;101416.03;5066775;28;20045;-74
2023/07/06 02:38:49;;;;;;;13.40;5.15;;;;;;;12.71;94.55;101415.94;5068370;28;20045;-74
2023/07/06 02:41:17;;;;;;;10.02;4.50;;;;;;;12.72;94.66;101420.31;5063144;28;20566;-74
2023/07/06 02:43:45;;;;;;;8.98;4.50;;;;;;;12.73;94.63;101416.78;5063926;28;20069;-75
2023/07/06 02:46:16;;;;;;;9.02;4.68;;;;;;;12.72;94.32;101430.03;5068691;28;20045;-75
2023/07/06 02:48:45;;;;;;;9.27;5.15;;;;;;;12.71;94.00;101421.22;5063631;28;20091;-74
2023/07/06 02:51:13;;;;;;;9.63;5.00;;;;;;;12.70;94.05;101419.50;5065137;28;20076;-75
2023/07/06 02:53:40;;;;;;;7.22;4.60;;;;;;;12.68;93.98;101423.97;5059457;28;20045;-74
2023/07/06 02:56:08;;;;;;;8.98;4.30;;;;;;;12.66;93.85;101432.88;5066199;28;20524;-74
2023/07/06 02:58:36;;;;;;;10.90;4.93;;;;;;;12.65;94.10;101423.19;5067525;28;20049;-74
2023/07/06 03:01:04;;;;;;;7.63;5.00;;;;;;;12.64;94.15;101432.03;5060297;28;20041;-72
2023/07/06 03:03:31;;;;;;;9.73;5.05;;;;;;;12.63;94.46;101422.38;5067687;28;20041;-73
2023/07/06 03:06:01;;;;;;;7.72;4.53;;;;;;;12.60;94.07;101420.69;5065773;28;20044;-72
2023/07/06 03:08:28;;;;;;;10.73;4.65;;;;;;;12.57;94.27;101428.69;5066124;28;20045;-72
2023/07/06 03:10:56;;;;;;;8.90;4.80;;;;;;;12.57;94.08;101428.69;5065760;28;20056;-73
2023/07/06 03:13:28;;;;;;;8.48;4.68;;;;;;;12.55;94.19;101425.25;5053803;28;20585;-73
2023/07/06 03:15:58;;;;;;;7.75;4.70;;;;;;;12.55;94.31;101430.53;5067088;28;20533;-74
2023/07/06 03:18:26;;;;;;;9.60;4.70;;;;;;;12.55;94.45;101430.53;5060922;28;20037;-75
2023/07/06 03:20:53;;;;;;;7.28;4.95;;;;;;;12.52;93.73;101430.63;5063855;28;20041;-75
2023/07/06 03:23:21;;;;;;;9.45;5.07;;;;;;;12.51;93.88;101428.88;5066040;28;20041;-74
2023/07/06 03:25:53;;;;;;;9.45;5.00;;;;;;;12.46;94.03;101430.81;5075040;28;20041;-74
2023/07/06 03:28:25;;;;;;;11.38;4.50;;;;;;;12.42;93.98;101433.53;5074439;28;20987;-70
2023/07/06 03:30:57;;;;;;;9.50;4.85;;;;;;;12.39;94.29;101432.75;5063632;28;20049;-71
2023/07/06 03:33:25;;;;;;;8.80;4.50;;;;;;;12.35;94.17;101433.75;5059414;28;20049;-72
2023/07/06 03:35:54;;;;;;;10.23;4.90;;;;;;;12.33;94.10;101443.50;5066053;28;20044;-72
2023/07/06 03:38:25;;;;;;;10.68;5.00;;;;;;;12.33;94.52;101447.03;5065809;28;20913;-71
2023/07/06 03:40:54;;;;;;;8.18;4.47;;;;;;;12.31;94.71;101448.84;5066684;28;20037;-72
2023/07/06 03:43:21;;;;;;;10.50;4.82;;;;;;;12.34;94.90;101454.03;5068350;28;20112;-72
2023/07/06 03:45:48;;;;;;;8.95;5.00;;;;;;;12.37;95.11;101455.72;5064697;28;20121;-72
2023/07/06 03:48:16;;;;;;;7.72;4.32;;;;;;;12.39;95.24;101452.13;5065916;28;20591;-71
2023/07/06 03:50:43;;;;;;;9.75;4.95;;;;;;;12.43;95.40;101448.50;5063558;28;20060;-72
2023/07/06 03:53:12;;;;;;;7.70;4.40;;;;;;;12.47;95.36;101454.56;5066201;28;20076;-72
2023/07/06 03:55:40;;;;;;;13.77;4.88;;;;;;;12.50;95.42;101464.19;5070580;28;20049;-71
2023/07/06 03:58:08;;;;;;;10.68;4.60;;;;;;;12.54;95.29;101463.19;5066622;28;20174;-70
2023/07/06 04:00:35;;;;;;;6.63;4.53;;;;;;;12.56;95.11;101470.16;5064558;28;20489;-70
2023/07/06 04:03:04;;;;;;;9.85;4.55;;;;;;;12.59;94.92;101463.91;5066115;28;20135;-71
2023/07/06 04:05:43;;;;;;;8.98;4.43;;;;;;;12.61;95.02;101464.75;5065198;28;20110;-72
2023/07/06 04:08:16;;;;;;;11.90;4.68;;;;;;;12.67;95.04;101466.34;5064124;28;20076;-72
2023/07/06 04:10:44;;;;;;;9.63;4.57;;;;;;;12.69;94.77;101469.81;5065554;28;20095;-71
2023/07/06 04:13:13;;;;;;;11.70;4.75;;;;;;;12.72;94.57;101469.69;5062654;28;20612;-72
2023/07/06 04:15:46;;;;;;;13.18;5.50;;;;;;;12.72;94.49;101467.94;5065459;28;20045;-73
2023/07/06 04:18:17;;;;;;;11.05;4.65;;;;;;;12.77;94.42;101474.88;5065908;28;20099;-72
2023/07/06 04:20:44;;;;;;;9.88;4.72;;;;;;;12.80;94.38;101469.50;5058680;28;20502;-73
2023/07/06 04:23:12;;;;;;;13.25;4.82;;;;;;;12.83;94.20;101464.97;5063399;28;20561;-74
2023/07/06 04:25:39;;;;;;;8.27;4.88;;;;;;;12.88;94.32;101464.81;5066545;28;20070;-74
2023/07/06 04:28:15;;;;;;;7.63;4.38;;;;;;;12.93;94.09;101464.69;5072084;28;20107;-73
2023/07/06 04:30:48;;;;;;;10.77;4.47;;;;;;;12.96;93.91;101470.78;5071003;28;20045;-74
2023/07/06 04:33:19;;;;;;;9.02;4.63;;;;;;;12.97;93.71;101471.63;5058792;28;20492;-76
2023/07/06 04:35:54;;;;;;;10.23;4.47;;;;;;;12.99;93.62;101489.19;5055627;28;20134;-75
2023/07/06 04:38:25;;;;;;;10.73;4.32;;;;;;;13.01;93.74;101487.38;5059627;28;20045;-75
2023/07/06 04:40:52;;;;;;;9.02;4.63;;;;;;;13.04;93.43;101489.94;5064628;28;20509;-76
2023/07/06 04:43:20;;;;;;;7.90;4.13;;;;;;;13.08;93.41;101493.34;5064316;28;20043;-75
2023/07/06 04:45:47;;;;;;;10.88;4.63;;;;;;;13.12;93.46;101489.72;5063784;28;20059;-76
2023/07/06 04:48:16;;;;;;;12.93;4.80;;;;;;;13.14;93.32;101490.50;5056392;28;20048;-76
2023/07/06 04:50:44;;;;;;;9.77;4.60;;;;;;;13.18;92.91;101494.81;5063289;28;20566;-75
2023/07/06 04:53:11;;;;;;;12.50;4.57;;;;;;;13.18;92.72;101492.16;5057096;28;20063;-74
2023/07/06 04:55:38;;;;;;;9.40;4.63;;;;;;;13.22;92.87;101492.06;5059744;28;20041;-72
2023/07/06 04:58:05;;;;;;;9.20;4.80;;;;;;;13.23;92.70;101491.16;5055270;28;20049;-76
2023/07/06 05:00:37;;;;;;;9.95;4.78;;;;;;;13.28;92.67;101494.50;5063121;28;20110;-76
2023/07/06 05:03:07;;;;;;;12.63;5.05;;;;;;;13.32;92.26;101494.38;5061360;28;20041;-74
2023/07/06 05:05:45;;;;;;;11.40;4.32;;;;;;;13.37;91.74;101494.22;5066810;28;20041;-75
2023/07/06 05:08:19;;;;;;;11.02;4.95;;;;;;;13.44;91.60;101498.44;5061032;28;20050;-77
2023/07/06 05:10:52;;;;;;;8.55;4.40;;;;;;;13.55;91.48;101499.88;5062089;28;20037;-74
2023/07/06 05:13:21;;;;;;;12.07;4.60;;;;;;;13.65;91.08;101498.66;5061619;28;20073;-74
2023/07/06 05:15:50;;;;;;;10.98;4.95;;;;;;;13.77;90.79;101500.06;5058365;28;20042;-75
2023/07/06 05:18:19;;;;;;;9.40;4.90;;;;;;;13.89;90.42;101494.31;5060885;28;20112;-74
2023/07/06 05:20:49;;;;;;;10.82;4.28;;;;;;;14.00;89.61;101496.63;5056324;28;20045;-74
2023/07/06 05:23:19;;;;;;;12.07;4.55;;;;;;;14.29;88.99;101494.75;5055728;28;20057;-74
2023/07/06 05:25:51;;;;;;;10.18;4.50;;;;;;;14.37;88.24;101499.78;5059047;28;20156;-75
2023/07/06 05:28:20;;;;;;;7.65;4.07;;;;;;;14.54;88.07;101500.03;5055303;28;20299;-75
2023/07/06 05:30:49;;;;;;;9.40;4.05;;;;;;;14.62;88.16;101498.88;5055556;28;20075;-75
2023/07/06 05:33:17;;;;;;;9.23;4.28;;;;;;;14.68;87.69;101506.66;5053811;28;20049;-75
2023/07/06 05:35:47;;;;;;;11.65;4.05;;;;;;;14.68;87.38;101509.31;5058436;28;20056;-75
2023/07/06 05:38:19;;;;;;;7.43;4.13;;;;;;;14.70;86.85;101504.81;5055368;28;20040;-75
2023/07/06 05:40:46;;;;;;;9.63;4.20;;;;;;;14.74;86.72;101507.31;5055439;28;20041;-76
2023/07/06 05:43:19;;;;;;;9.20;3.95;;;;;;;15.03;85.67;101510.63;5054397;28;20067;-75
2023/07/06 05:45:47;;;;;;;10.95;4.15;;;;;;;15.78;83.80;101510.31;5057596;28;20139;-75
2023/07/06 05:48:14;;;;;;;8.07;4.28;;;;;;;16.59;81.39;101513.09;5057662;28;20045;-75
2023/07/06 05:50:42;;;;;;;7.68;3.75;;;;;;;16.59;79.64;101510.44;5055873;28;20053;-76
2023/07/06 05:53:09;;;;;;;15.82;4.47;;;;;;;16.50;79.41;101518.84;5068046;28;20041;-75
2023/07/06 05:55:36;;;;;;;7.72;3.75;;;;;;;16.34;79.59;101522.16;5077398;28;20045;-75
2023/07/06 05:58:03;;;;;;;10.90;4.47;;;;;;;16.25;78.69;101523.44;5067294;28;20139;-75
2023/07/06 06:00:36;;;;;;;12.68;5.00;;;;;;;16.13;78.22;101523.97;5068801;28;20036;-75
2023/07/06 06:03:04;;;;;;;13.98;4.50;;;;;;;16.11;78.84;101528.47;5068560;28;20045;-75
2023/07/06 06:05:33;;;;;;;16.52;4.78;;;;;;;16.18;79.41;101532.59;5072687;28;20154;-75
2023/07/06 06:08:03;;;;;;;13.02;5.40;;;;;;;16.23;79.03;101530.63;5069596;28;20049;-74
2023/07/06 06:10:31;;;;;;;19.65;6.10;;;;;;;16.18;79.12;101531.75;5067956;28;20098;-74
2023/07/06 06:12:58;;;;;;;14.95;6.00;;;;;;;16.11;78.77;101529.38;5072139;28;20041;-75
2023/07/06 06:15:27;;;;;;;18.05;6.75;;;;;;;16.10;79.29;101532.97;5070064;28;20569;-75
2023/07/06 06:17:54;;;;;;;15.65;6.63;;;;;;;16.21;79.88;101539.63;5072434;28;20394;-75
2023/07/06 06:20:21;;;;;;;21.85;6.90;;;;;;;16.22;79.74;101539.53;5066719;28;20052;-74
2023/07/06 06:22:49;;;;;;;27.83;8.23;;;;;;;16.33;79.53;101539.06;5073027;28;20729;-74
2023/07/06 06:25:16;;;;;;;19.27;7.35;;;;;;;16.47;79.53;101541.13;5068200;28;20033;-74
2023/07/06 06:27:43;;;;;;;26.05;7.97;;;;;;;16.53;79.39;101540.84;5076148;28;20517;-74
2023/07/06 06:30:10;;;;;;;21.67;8.88;;;;;;;16.58;78.05;101546.81;5070308;28;20041;-76
2023/07/06 06:32:39;;;;;;;18.35;8.40;;;;;;;16.49;77.98;101546.38;5074233;28;20040;-73
2023/07/06 06:35:25;;;;;;;19.30;8.23;;;;;;;16.51;77.29;101541.88;5077186;28;20556;-75
2023/07/06 06:37:52;;;;;;;21.65;8.57;;;;;;;16.74;78.16;101548.81;5063709;28;20036;-75
2023/07/06 06:40:21;;;;;;;18.48;8.52;;;;;;;16.98;78.04;101554.00;5073272;28;20578;-74
2023/07/06 06:42:49;;;;;;;17.30;8.05;;;;;;;16.95;76.79;101554.13;5075530;28;20505;-75
2023/07/06 06:45:19;;;;;;;20.17;8.55;;;;;;;16.89;77.37;101545.44;5076941;28;20041;-73
2023/07/06 06:47:47;;;;;;;20.55;8.65;;;;;;;16.85;78.21;101556.31;5072562;28;20044;-75
2023/07/06 06:50:16;;;;;;;18.92;8.80;;;;;;;16.84;77.95;101559.94;5083954;28;20072;-75
2023/07/06 06:52:44;;;;;;;18.65;9.00;;;;;;;16.80;78.27;101564.50;5070442;28;20049;-74
2023/07/06 06:55:11;;;;;;;18.92;9.25;;;;;;;16.82;78.04;101570.63;5074779;28;20513;-74
2023/07/06 06:57:38;;;;;;;23.33;9.70;;;;;;;16.73;77.68;101573.72;5074664;28;20052;-75
2023/07/06 07:00:09;;;;;;;20.45;9.38;;;;;;;16.67;77.81;101569.53;5081867;28;20461;-75
2023/07/06 07:02:38;;;;;;;17.00;9.38;;;;;;;16.64;78.35;101569.66;5083559;28;20137;-75
2023/07/06 07:05:09;;;;;;;19.13;10.00;;;;;;;16.67;78.63;101568.66;5093091;28;20080;-75
2023/07/06 07:07:37;;;;;;;20.23;10.32;;;;;;;16.73;78.44;101574.59;5087454;28;20050;-74
2023/07/06 07:10:10;;;;;;;23.38;9.95;;;;;;;16.71;78.31;101578.22;5074390;28;20048;-75
2023/07/06 07:12:43;;;;;;;22.40;9.93;;;;;;;16.66;78.94;101585.56;5077957;28;20116;-76
2023/07/06 07:15:14;;;;;;;19.07;9.37;;;;;;;16.67;79.38;101584.63;5083365;28;20072;-76
2023/07/06 07:17:42;;;;;;;25.58;10.40;;;;;;;16.69;78.72;101585.41;5069275;28;20495;-75
2023/07/06 07:20:11;;;;;;;27.75;11.15;;;;;;;16.62;78.59;101587.50;5075306;28;20500;-76
2023/07/06 07:22:38;;;;;;;35.10;11.57;;;;;;;16.53;79.24;101593.22;5077162;28;20041;-76
2023/07/06 07:25:07;;;;;;;38.40;13.73;;;;;;;16.47;80.02;101594.38;5082281;28;20044;-76
2023/07/06 07:27:37;;;;;;;27.20;11.68;;;;;;;16.46;80.41;101598.81;5070605;28;20485;-76
2023/07/06 07:30:09;;;;;;;30.25;11.57;;;;;;;16.52;80.02;101604.81;5082480;28;20124;-76
2023/07/06 07:32:36;;;;;;;28.25;11.85;;;;;;;16.51;80.12;101603.94;5078069;28;20123;-75
2023/07/06 07:35:04;;;;;;;26.02;10.60;;;;;;;16.57;80.46;101608.13;5082198;28;20593;-75
2023/07/06 07:37:31;;;;;;;25.67;11.77;;;;;;;16.67;80.51;101605.94;5071143;28;20582;-74
2023/07/06 07:40:00;;;;;;;25.77;11.38;;;;;;;16.80;79.87;101608.91;5082316;28;20095;-74
2023/07/06 07:42:30;;;;;;;24.20;12.27;;;;;;;16.86;78.61;101608.63;5075785;28;20033;-74
2023/07/06 07:44:57;;;;;;;23.88;11.25;;;;;;;16.89;78.90;101619.16;5074465;28;20048;-75
2023/07/06 07:47:25;;;;;;;19.35;11.18;;;;;;;16.98;79.11;101605.44;5084100;28;20040;-75
2023/07/06 07:49:54;;;;;;;20.55;10.80;;;;;;;17.11;79.74;101613.75;5083045;28;20202;-76
2023/07/06 07:52:21;;;;;;;26.00;10.88;;;;;;;17.29;79.09;101613.84;5069238;28;20052;-75
2023/07/06 07:54:50;;;;;;;27.63;11.18;;;;;;;17.46;78.70;101611.25;5078930;28;20041;-75
2023/07/06 07:57:18;;;;;;;21.98;10.70;;;;;;;17.61;77.54;101617.66;5070698;28;20478;-74
2023/07/06 07:59:48;;;;;;;20.23;10.82;;;;;;;17.76;77.42;101613.41;5081192;28;20549;-75
2023/07/06 08:02:15;;;;;;;22.67;10.77;;;;;;;17.91;76.75;101617.13;5062818;28;20496;-75
2023/07/06 08:04:43;;;;;;;20.17;10.30;;;;;;;18.02;76.33;101615.75;5076285;28;20095;-75
2023/07/06 08:07:11;;;;;;;27.17;11.68;;;;;;;18.07;76.69;101613.72;5083357;28;20040;-75
2023/07/06 08:09:38;;;;;;;17.63;9.77;;;;;;;18.23;75.18;101609.34;5069921;28;20052;-75
2023/07/06 08:12:06;;;;;;;18.95;10.27;;;;;;;18.52;74.90;101612.34;5081134;28;20505;-75
2023/07/06 08:14:38;;;;;;;17.10;10.05;;;;;;;18.71;74.73;101619.38;5076573;28;20040;-75
2023/07/06 08:17:05;;;;;;;25.40;10.85;;;;;;;18.86;74.27;101617.72;5073139;28;20442;-76
2023/07/06 08:19:33;;;;;;;21.85;9.80;;;;;;;18.96;73.08;101618.13;5084058;28;20479;-75
2023/07/06 08:22:22;;;;;;;22.48;10.18;;;;;;;18.95;72.13;101622.59;5074592;28;20457;-76
2023/07/06 08:24:49;;;;;;;32.65;11.57;;;;;;;18.97;72.90;101625.19;5074716;28;20056;-76
2023/07/06 08:27:17;;;;;;;18.45;9.75;;;;;;;19.11;72.81;101636.00;5077175;28;20048;-76
2023/07/06 08:29:47;;;;;;;16.92;9.52;;;;;;;19.22;73.03;101630.94;5056426;28;20047;-75
2023/07/06 08:32:18;;;;;;;21.70;10.48;;;;;;;19.31;71.44;101631.38;5074799;28;20044;-76
2023/07/06 08:34:47;;;;;;;21.20;8.98;;;;;;;19.43;71.98;101633.38;5076063;28;20041;-76
2023/07/06 08:37:18;;;;;;;18.75;9.80;;;;;;;19.50;71.84;101634.75;5082993;28;20102;-76
2023/07/06 08:39:47;;;;;;;23.10;9.82;;;;;;;19.62;71.41;101643.03;5053234;28;20037;-76
2023/07/06 08:42:18;;;;;;;17.30;9.82;;;;;;;19.61;69.95;101639.53;5079329;28;20483;-76
2023/07/06 08:44:55;;;;;;;17.73;9.80;;;;;;;19.59;69.56;101637.84;5079000;28;20056;-76
2023/07/06 08:47:25;;;;;;;18.67;10.07;;;;;;;19.52;69.65;101640.03;5070643;28;20521;-76
2023/07/06 08:49:55;;;;;;;20.25;10.63;;;;;;;19.43;70.08;101641.41;5082409;28;20622;-76
2023/07/06 08:52:24;;;;;;;21.75;9.93;;;;;;;19.48;69.99;101639.34;5075679;28;20040;-76
2023/07/06 08:54:52;;;;;;;23.48;10.10;;;;;;;19.57;70.09;101650.47;5073653;28;20087;-76
2023/07/06 08:57:24;;;;;;;17.48;9.80;;;;;;;19.51;68.55;101649.00;5082186;28;20155;-76
2023/07/06 08:59:51;;;;;;;23.80;9.65;;;;;;;19.35;68.91;101644.50;5051678;28;20527;-76
2023/07/06 09:02:23;;;;;;;18.60;9.52;;;;;;;19.31;69.17;101650.09;5073949;28;20045;-77
2023/07/06 09:04:55;;;;;;;15.15;8.30;;;;;;;19.29;69.73;101644.84;5074974;28;20081;-76
2023/07/06 09:07:34;;;;;;;20.85;9.25;;;;;;;19.36;69.33;101650.72;5082984;28;20041;-77
2023/07/06 09:10:13;;;;;;;14.02;7.20;;;;;;;19.54;68.80;101644.34;5072043;28;20638;-77
2023/07/06 09:12:53;;;;;;;14.55;7.53;;;;;;;19.89;67.58;101648.69;5073585;28;20045;-77
2023/07/06 09:15:28;;;;;;;15.60;6.88;;;;;;;20.01;67.67;101647.13;5083015;28;20045;-77
2023/07/06 09:18:02;;;;;;;14.00;6.05;;;;;;;20.23;68.25;101652.09;5071833;28;20045;-77
2023/07/06 09:20:34;;;;;;;13.40;5.97;;;;;;;20.45;67.60;101643.66;5077106;28;20061;-77
2023/07/06 09:23:05;;;;;;;12.55;5.32;;;;;;;20.51;67.04;101646.91;5080782;28;20414;-77
2023/07/06 09:25:38;;;;;;;14.90;5.68;;;;;;;20.62;65.55;101644.44;5068654;28;20047;-76
2023/07/06 09:28:15;;;;;;;21.15;5.72;;;;;;;20.77;63.92;101646.25;5078359;28;20542;-76
2023/07/06 09:30:44;;;;;;;17.85;5.72;;;;;;;20.78;63.66;101649.78;5073456;28;20505;-77
2023/07/06 09:33:26;;;;;;;10.98;4.75;;;;;;;20.99;63.65;101636.00;5081031;28;20551;-77
2023/07/06 09:35:57;;;;;;;14.07;5.20;;;;;;;21.24;62.55;101651.44;5055807;28;20123;-76
2023/07/06 09:38:27;;;;;;;14.95;4.53;;;;;;;21.43;60.86;101645.78;5076078;28;20052;-76
2023/07/06 09:40:55;;;;;;;13.10;3.92;;;;;;;21.70;60.63;101648.53;5078144;28;20563;-76
2023/07/06 09:43:27;;;;;;;11.35;4.13;;;;;;;21.82;59.71;101651.41;5068149;28;20075;-76
2023/07/06 09:46:00;;;;;;;12.25;4.18;;;;;;;21.89;59.58;101650.03;5081599;28;20065;-78
2023/07/06 09:48:32;;;;;;;;;;;;;;;21.85;59.76;101643.13;5075334;28;20041;-76
2023/07/06 09:51:13;;;;;;;9.40;4.20;;;;;;;21.97;59.26;101647.69;5072294;28;19925;-77
2023/07/06 09:53:53;;;;;;;10.85;3.78;;;;;;;22.07;57.75;101652.44;5082642;28;20052;-77
2023/07/06 09:56:21;;;;;;;16.05;3.95;;;;;;;22.08;57.54;101648.81;5073506;28;20098;-77
2023/07/06 09:58:52;;;;;;;10.50;3.95;;;;;;;22.15;58.50;101647.41;5077247;28;20489;-77
2023/07/06 10:01:53;;;;;;;12.10;3.40;;;;;;;22.40;59.11;101643.97;5053501;28;20526;-76
2023/07/06 10:04:45;;;;;;;16.27;3.75;;;;;;;22.60;57.03;101648.00;5062308;28;20036;-77
2023/07/06 10:07:31;;;;;;;26.20;4.80;;;;;;;22.65;55.63;101647.69;5070833;28;20044;-77
2023/07/06 10:10:06;;;;;;;12.38;4.00;;;;;;;22.42;55.70;101643.88;5055580;28;20453;-76
2023/07/06 10:13:15;;;;;;;16.77;4.22;;;;;;;22.57;55.33;101650.03;5074921;28;20092;-77
2023/07/06 10:15:59;;;;;;;12.20;4.20;;;;;;;22.69;55.82;101643.78;5082723;28;20147;-76
2023/07/06 10:18:52;;;;;;;9.57;3.53;;;;;;;22.80;54.84;101643.06;5074921;28;20045;-77
2023/07/06 10:21:43;;;;;;;9.43;3.85;;;;;;;22.90;53.67;101646.84;5068007;28;20119;-77
2023/07/06 10:24:20;;;;;;;10.32;3.47;;;;;;;22.77;55.22;101640.59;5067611;28;20036;-76
2023/07/06 10:26:55;;;;;;;8.68;3.38;;;;;;;22.71;54.48;101638.34;5070587;28;20846;-76
2023/07/06 10:29:37;;;;;;;8.13;2.95;;;;;;;22.72;53.64;101634.69;5072408;28;20523;-77
2023/07/06 10:32:14;;;;;;;12.25;3.22;;;;;;;22.83;54.32;101637.50;5078862;28;20048;-76
2023/07/06 10:35:00;;;;;;;9.43;3.50;;;;;;;22.96;51.85;101643.72;5067808;28;20076;-77
2023/07/06 10:37:28;;;;;;;14.27;3.75;;;;;;;23.03;53.12;101633.38;5082894;28;20040;-76
2023/07/06 10:40:12;;;;;;;10.50;2.90;;;;;;;23.18;51.62;101633.28;5069897;28;20390;-77
2023/07/06 10:42:49;;;;;;;8.00;2.55;;;;;;;23.35;51.43;101638.31;5074483;28;20057;-77
2023/07/06 10:45:46;;;;;;;9.65;2.67;;;;;;;23.59;51.50;101640.22;5072627;28;20037;-76
2023/07/06 10:48:34;;;;;;;7.75;2.55;;;;;;;23.80;49.50;101642.28;5068187;28;20041;-76
2023/07/06 10:51:20;;;;;;;7.45;2.38;;;;;;;23.84;48.65;101635.69;5071509;28;20060;-75
2023/07/06 10:54:16;;;;;;;4.93;1.98;;;;;;;23.85;48.63;101648.19;5067257;28;20500;-76
2023/07/06 10:57:11;;;;;;;6.70;2.50;;;;;;;23.92;49.32;101637.81;5076224;28;20076;-76
2023/07/06 10:59:44;;;;;;;8.90;2.30;;;;;;;23.72;48.27;101634.78;5077171;28;20045;-76
2023/07/06 11:02:24;;;;;;;8.25;2.60;;;;;;;23.45;49.21;101643.91;5066859;28;20056;-76
2023/07/06 11:05:08;;;;;;;8.00;2.50;;;;;;;23.43;48.70;101637.78;5071081;28;20414;-76
2023/07/06 11:07:57;;;;;;;7.90;2.33;;;;;;;23.19;49.39;101648.47;5078800;28;20323;-76
2023/07/06 11:10:28;;;;;;;6.07;2.35;;;;;;;23.14;49.84;101643.41;5081158;28;20044;-75
2023/07/06 11:13:01;;;;;;;5.80;2.22;;;;;;;23.27;49.01;101646.09;5072621;28;20104;-75
2023/07/06 11:15:56;;;;;;;5.60;1.92;;;;;;;23.41;47.32;101642.41;5067701;28;20072;-75
2023/07/06 11:18:32;;;;;;;8.25;2.30;;;;;;;23.50;48.79;101638.19;5070234;28;20756;-76
2023/07/06 11:21:10;;;;;;;7.13;2.38;;;;;;;23.70;48.24;101644.78;5079613;28;21042;-76
2023/07/06 11:23:50;;;;;;;5.05;1.90;;;;;;;23.91;47.43;101650.41;5083085;28;20148;-76
2023/07/06 11:26:40;;;;;;;7.80;2.10;;;;;;;24.03;45.39;101640.59;5068575;28;20497;-75
2023/07/06 11:29:08;;;;;;;4.85;1.90;;;;;;;24.09;45.57;101641.97;5068540;28;20052;-76
2023/07/06 11:31:40;;;;;;;7.18;1.88;;;;;;;24.16;46.30;101640.53;5085266;28;20059;-76
2023/07/06 11:34:34;;;;;;;12.07;2.42;;;;;;;24.33;44.88;101648.19;5067781;28;20511;-75
2023/07/06 11:37:14;;;;;;;8.60;2.08;;;;;;;24.48;44.17;101646.16;5064388;28;20041;-74
2023/07/06 11:39:52;;;;;;;7.38;2.17;;;;;;;24.55;43.93;101648.38;5071530;28;20041;-75
2023/07/06 11:43:12;;;;;;;5.00;1.60;;;;;;;24.66;44.41;101645.72;5072398;28;20049;-74
2023/07/06 11:46:26;;;;;;;4.50;1.50;;;;;;;24.86;43.74;101646.03;5068614;28;20041;-74